createdAt,value
2022-10-30T00:01:57.680Z,55.34
2022-10-30T00:04:26.075Z,55.30
2022-10-30T00:06:54.438Z,54.73
2022-10-30T00:09:22.760Z,54.76
2022-10-30T00:11:51.097Z,54.65
2022-10-30T00:14:19.555Z,54.37
2022-10-30T00:16:47.866Z,53.84
2022-10-30T00:19:17.747Z,53.57
2022-10-30T00:21:46.102Z,53.02
2022-10-30T00:24:14.712Z,52.65
2022-10-30T00:26:43.260Z,52.79
2022-10-30T00:29:11.650Z,52.98
2022-10-30T00:31:39.983Z,52.72
2022-10-30T00:34:08.415Z,52.35
2022-10-30T00:36:38.279Z,52.29
2022-10-30T00:39:06.606Z,52.12
2022-10-30T00:41:35.281Z,51.91
2022-10-30T00:44:03.611Z,51.70
2022-10-30T00:46:36.281Z,51.90
2022-10-30T00:49:11.216Z,52.16
2022-10-30T00:51:48.336Z,52.29
2022-10-30T00:54:19.448Z,52.06
2022-10-30T00:56:50.507Z,51.66
2022-10-30T00:59:24.019Z,51.83
2022-10-30T01:01:54.168Z,51.82
2022-10-30T01:04:29.008Z,51.45
2022-10-30T01:07:03.936Z,50.54
2022-10-30T01:09:32.529Z,50.78
2022-10-30T01:12:01.173Z,50.25
2022-10-30T01:14:29.606Z,50.23
2022-10-30T01:17:24.558Z,50.62
2022-10-30T01:20:07.018Z,50.41
2022-10-30T01:22:51.833Z,50.27
2022-10-30T01:25:33.802Z,49.97
2022-10-30T01:28:08.589Z,48.90
2022-10-30T01:30:49.845Z,48.04
2022-10-30T01:33:30.267Z,47.79
2022-10-30T01:36:06.176Z,48.32
2022-10-30T01:38:40.437Z,48.47
2022-10-30T01:41:08.793Z,48.67
2022-10-30T01:43:39.142Z,48.71
2022-10-30T01:46:25.142Z,48.78
2022-10-30T01:49:17.668Z,48.56
2022-10-30T01:51:56.566Z,48.59
2022-10-30T01:54:35.631Z,48.01
2022-10-30T01:57:11.392Z,47.58
2022-10-30T01:59:44.018Z,47.63
2022-10-30T02:02:13.372Z,46.08
2022-10-30T02:04:43.037Z,47.27
2022-10-30T02:07:12.692Z,46.35
2022-10-30T02:09:42.654Z,46.04
2022-10-30T02:12:11.556Z,46.66
2022-10-30T02:14:44.511Z,46.73
2022-10-30T02:17:13.936Z,46.81
2022-10-30T02:19:42.977Z,46.33
2022-10-30T02:22:13.875Z,46.22
2022-10-30T02:24:42.367Z,46.23
2022-10-30T02:27:10.878Z,44.78
2022-10-30T02:29:39.166Z,45.23
2022-10-30T02:32:07.678Z,44.36
2022-10-30T02:34:36.986Z,44.23
2022-10-30T02:37:05.374Z,43.75
2022-10-30T02:39:35.386Z,43.74
2022-10-30T02:42:03.736Z,43.55
2022-10-30T02:44:32.234Z,43.69
2022-10-30T02:47:01.239Z,43.54
2022-10-30T02:49:29.590Z,43.46
2022-10-30T02:51:57.981Z,43.31
2022-10-30T02:54:26.650Z,43.68
2022-10-30T02:56:56.851Z,43.94
2022-10-30T02:59:25.254Z,43.62
2022-10-30T03:01:53.753Z,43.05
2022-10-30T03:04:22.159Z,43.38
2022-10-30T03:06:50.582Z,44.01
2022-10-30T03:09:19.059Z,43.80
2022-10-30T03:11:47.725Z,43.72
2022-10-30T03:14:17.685Z,42.96
2022-10-30T03:16:46.074Z,42.73
2022-10-30T03:19:14.401Z,42.70
2022-10-30T03:21:42.921Z,42.90
2022-10-30T03:24:11.389Z,42.41
2022-10-30T03:26:39.928Z,42.13
2022-10-30T03:29:09.096Z,41.97
2022-10-30T03:31:39.170Z,42.38
2022-10-30T03:34:07.694Z,42.61
2022-10-30T03:36:36.154Z,41.86
2022-10-30T03:39:04.681Z,41.98
2022-10-30T03:41:33.074Z,40.94
2022-10-30T03:44:01.466Z,41.14
2022-10-30T03:46:31.673Z,41.53
2022-10-30T03:49:01.591Z,41.90
2022-10-30T03:51:30.037Z,41.72
2022-10-30T03:53:58.664Z,41.69
2022-10-30T03:56:27.338Z,41.30
2022-10-30T03:58:55.788Z,41.15
2022-10-30T04:01:24.320Z,41.25
2022-10-30T04:03:52.820Z,41.17
2022-10-30T04:06:22.692Z,41.67
2022-10-30T04:08:51.471Z,41.64
2022-10-30T04:11:19.874Z,41.84
2022-10-30T04:13:48.415Z,42.53
2022-10-30T04:16:16.924Z,42.73
2022-10-30T04:18:45.301Z,42.26
2022-10-30T04:21:13.650Z,41.96
2022-10-30T04:23:43.392Z,41.88
2022-10-30T04:26:11.790Z,42.42
2022-10-30T04:28:40.082Z,42.94
2022-10-30T04:31:08.820Z,42.99
2022-10-30T04:33:37.197Z,43.28
2022-10-30T04:36:06.004Z,43.38
2022-10-30T04:38:34.324Z,43.79
2022-10-30T04:41:04.154Z,44.21
2022-10-30T04:43:32.449Z,44.67
2022-10-30T04:46:00.831Z,45.24
2022-10-30T04:48:29.201Z,45.36
2022-10-30T04:51:00.191Z,45.48
2022-10-30T04:53:28.592Z,46.01
2022-10-30T04:55:57.541Z,46.19
2022-10-30T04:58:27.450Z,46.19
2022-10-30T05:01:00.414Z,46.08
2022-10-30T05:03:31.445Z,45.92
2022-10-30T05:06:03.150Z,45.58
2022-10-30T05:08:32.225Z,45.88
2022-10-30T05:11:01.618Z,45.89
2022-10-30T05:13:31.445Z,45.51
2022-10-30T05:15:59.833Z,45.16
2022-10-30T05:18:28.279Z,45.19
2022-10-30T05:20:56.605Z,44.59
2022-10-30T05:23:25.045Z,44.97
2022-10-30T05:25:53.406Z,45.05
2022-10-30T05:28:21.891Z,45.62
2022-10-30T05:30:54.295Z,45.90
2022-10-30T05:33:23.669Z,46.51
2022-10-30T05:35:52.058Z,47.04
2022-10-30T05:38:20.359Z,47.64
2022-10-30T05:40:48.775Z,47.94
2022-10-30T05:43:17.252Z,47.78
2022-10-30T05:45:45.513Z,48.55
2022-10-30T05:48:15.283Z,48.67
2022-10-30T05:50:43.620Z,49.03
2022-10-30T05:53:12.273Z,48.98
2022-10-30T05:55:40.638Z,48.58
2022-10-30T05:58:09.310Z,48.94
2022-10-30T06:00:39.365Z,49.04
2022-10-30T06:03:09.225Z,49.26
2022-10-30T06:05:39.481Z,48.50
2022-10-30T06:08:08.786Z,48.41
2022-10-30T06:10:37.965Z,48.52
2022-10-30T06:13:08.874Z,48.17
2022-10-30T06:15:37.651Z,48.03
2022-10-30T06:18:06.422Z,48.25
2022-10-30T06:20:34.848Z,48.03
2022-10-30T06:23:06.246Z,48.15
2022-10-30T06:25:41.076Z,48.19
2022-10-30T06:28:11.289Z,47.58
2022-10-30T06:30:39.705Z,47.93
2022-10-30T06:33:08.790Z,48.40
2022-10-30T06:35:37.538Z,48.03
2022-10-30T06:38:09.083Z,47.83
2022-10-30T06:40:37.429Z,47.93
2022-10-30T06:43:05.865Z,47.37
2022-10-30T06:45:34.589Z,47.42
2022-10-30T06:48:03.138Z,47.17
2022-10-30T06:50:31.786Z,46.91
2022-10-30T06:53:00.199Z,46.63
2022-10-30T06:55:29.985Z,47.06
2022-10-30T06:57:59.420Z,47.21
2022-10-30T07:00:28.324Z,47.08
2022-10-30T07:03:01.679Z,46.73
2022-10-30T07:05:30.738Z,46.37
2022-10-30T07:07:59.966Z,45.95
2022-10-30T07:10:29.853Z,45.68
2022-10-30T07:12:59.050Z,46.04
2022-10-30T07:15:29.901Z,46.22
2022-10-30T07:18:00.131Z,45.89
2022-10-30T07:20:30.995Z,45.39
2022-10-30T07:22:59.445Z,45.12
2022-10-30T07:25:29.948Z,44.92
2022-10-30T07:27:59.203Z,44.74
2022-10-30T07:30:28.953Z,44.29
2022-10-30T07:33:02.449Z,43.63
2022-10-30T07:35:32.847Z,43.33
2022-10-30T07:38:05.409Z,43.24
2022-10-30T07:40:35.823Z,42.61
2022-10-30T07:43:05.811Z,42.30
2022-10-30T07:45:34.655Z,42.73
2022-10-30T07:48:03.315Z,41.72
2022-10-30T07:50:31.930Z,41.18
2022-10-30T07:53:00.301Z,41.29
2022-10-30T07:55:28.578Z,41.36
2022-10-30T07:57:59.508Z,41.61
2022-10-30T08:00:28.261Z,40.75
2022-10-30T08:02:58.760Z,40.65
2022-10-30T08:05:29.102Z,40.40
2022-10-30T08:07:58.999Z,40.64
2022-10-30T08:10:28.221Z,39.89
2022-10-30T08:12:58.178Z,39.97
2022-10-30T08:15:26.830Z,40.15
2022-10-30T08:17:55.627Z,40.47
2022-10-30T08:20:26.005Z,40.35
2022-10-30T08:22:55.861Z,40.46
2022-10-30T08:25:27.477Z,39.57
2022-10-30T08:27:59.267Z,39.56
2022-10-30T08:30:29.290Z,40.18
2022-10-30T08:33:00.126Z,39.97
2022-10-30T08:35:29.426Z,40.37
2022-10-30T08:37:58.925Z,40.41
2022-10-30T08:40:28.629Z,40.41
2022-10-30T08:43:00.041Z,39.91
2022-10-30T08:45:31.247Z,39.94
2022-10-30T08:48:01.490Z,40.71
2022-10-30T08:50:30.534Z,40.60
2022-10-30T08:53:02.754Z,40.85
2022-10-30T08:55:31.915Z,41.18
2022-10-30T08:58:02.172Z,41.54
2022-10-30T09:00:31.195Z,42.02
2022-10-30T09:02:59.791Z,42.24
2022-10-30T09:05:28.378Z,42.51
2022-10-30T09:08:01.612Z,42.71
2022-10-30T09:10:30.908Z,42.76
2022-10-30T09:13:00.172Z,43.20
2022-10-30T09:15:30.281Z,43.03
2022-10-30T09:18:00.070Z,43.22
2022-10-30T09:20:29.966Z,43.30
2022-10-30T09:22:59.157Z,43.16
2022-10-30T09:25:28.079Z,43.13
2022-10-30T09:27:56.466Z,43.33
2022-10-30T09:30:25.486Z,43.59
2022-10-30T09:32:58.316Z,43.41
2022-10-30T09:35:27.786Z,43.30
2022-10-30T09:37:57.075Z,43.66
2022-10-30T09:40:42.548Z,43.29
2022-10-30T09:43:24.784Z,43.24
2022-10-30T09:46:13.081Z,43.47
2022-10-30T09:49:11.298Z,43.76
2022-10-30T09:52:02.549Z,43.62
2022-10-30T09:54:42.084Z,43.20
2022-10-30T09:57:20.504Z,43.30
2022-10-30T10:00:02.185Z,43.58
2022-10-30T10:02:36.723Z,43.78
2022-10-30T10:05:17.136Z,43.98
2022-10-30T10:07:50.439Z,43.69
2022-10-30T10:10:24.866Z,43.59
2022-10-30T10:13:01.087Z,43.33
2022-10-30T10:15:39.242Z,43.26
2022-10-30T10:18:17.844Z,42.99
2022-10-30T10:20:52.685Z,42.46
2022-10-30T10:23:31.906Z,42.80
2022-10-30T10:26:05.909Z,42.86
2022-10-30T10:28:51.008Z,41.27
2022-10-30T10:31:33.297Z,41.51
2022-10-30T10:34:16.135Z,41.16
2022-10-30T10:36:55.653Z,41.42
2022-10-30T10:39:36.321Z,42.03
2022-10-30T10:42:17.571Z,41.22
2022-10-30T10:44:57.102Z,39.86
2022-10-30T10:48:09.778Z,39.88
2022-10-30T10:50:41.953Z,40.39
2022-10-30T10:53:21.337Z,40.84
2022-10-30T10:55:53.151Z,40.85
2022-10-30T10:58:31.853Z,39.87
2022-10-30T11:01:00.812Z,39.08
2022-10-30T11:03:38.243Z,38.08
2022-10-30T11:06:19.765Z,38.33
2022-10-30T11:08:50.322Z,38.41
2022-10-30T11:11:18.758Z,38.12
2022-10-30T11:13:47.249Z,37.37
2022-10-30T11:16:26.882Z,36.57
2022-10-30T11:18:59.347Z,36.38
2022-10-30T11:21:30.869Z,36.49
2022-10-30T11:24:02.078Z,35.31
2022-10-30T11:26:34.936Z,34.89
2022-10-30T11:29:13.093Z,34.99
2022-10-30T11:31:43.264Z,35.28
2022-10-30T11:34:21.790Z,34.68
2022-10-30T11:36:53.131Z,35.02
2022-10-30T11:39:25.657Z,34.95
2022-10-30T11:42:00.258Z,34.83
2022-10-30T11:44:33.224Z,34.71
2022-10-30T11:47:02.505Z,35.16
2022-10-30T11:49:44.898Z,35.14
2022-10-30T11:52:14.920Z,34.91
2022-10-30T11:54:48.481Z,34.33
2022-10-30T11:57:20.495Z,34.27
2022-10-30T11:59:51.017Z,34.35
2022-10-30T12:02:27.413Z,33.73
2022-10-30T12:04:57.025Z,33.28
2022-10-30T12:07:31.468Z,33.37
2022-10-30T12:10:02.611Z,33.57
2022-10-30T12:12:35.373Z,33.55
2022-10-30T12:15:12.794Z,33.77
2022-10-30T12:17:42.446Z,33.40
2022-10-30T12:20:16.362Z,32.64
2022-10-30T12:22:44.967Z,33.07
2022-10-30T12:25:24.965Z,32.77
2022-10-30T12:28:01.145Z,32.83
2022-10-30T12:30:33.045Z,32.95
2022-10-30T12:33:06.447Z,32.82
2022-10-30T12:35:46.676Z,32.83
2022-10-30T12:38:24.112Z,32.80
2022-10-30T12:41:03.732Z,32.69
2022-10-30T12:43:36.434Z,32.28
2022-10-30T12:46:23.479Z,32.19
2022-10-30T12:48:55.889Z,32.17
2022-10-30T12:51:33.786Z,32.61
2022-10-30T12:54:09.858Z,32.96
2022-10-30T12:56:43.213Z,32.99
2022-10-30T12:59:32.937Z,33.16
2022-10-30T13:02:13.557Z,33.31
2022-10-30T13:04:46.518Z,33.44
2022-10-30T13:07:21.617Z,33.75
2022-10-30T13:10:08.389Z,33.48
2022-10-30T13:12:40.987Z,33.94
2022-10-30T13:15:19.138Z,34.19
2022-10-30T13:17:47.587Z,34.44
2022-10-30T13:20:17.260Z,34.32
2022-10-30T13:22:50.783Z,34.65
2022-10-30T13:25:22.596Z,34.92
2022-10-30T13:27:57.354Z,35.01
2022-10-30T13:30:31.430Z,35.04
2022-10-30T13:33:11.621Z,34.96
2022-10-30T13:35:48.066Z,34.97
2022-10-30T13:38:31.851Z,35.23
2022-10-30T13:41:02.136Z,35.34
2022-10-30T13:43:42.979Z,35.60
2022-10-30T13:46:28.204Z,35.81
2022-10-30T13:49:21.581Z,35.78
2022-10-30T13:51:55.545Z,35.77
2022-10-30T13:54:28.708Z,35.47
2022-10-30T13:56:59.693Z,35.70
2022-10-30T13:59:45.725Z,35.87
2022-10-30T14:02:26.822Z,35.89
2022-10-30T14:05:03.805Z,36.02
2022-10-30T14:07:39.809Z,36.51
2022-10-30T14:10:15.100Z,36.94
2022-10-30T14:12:51.156Z,36.92
2022-10-30T14:15:33.185Z,37.29
2022-10-30T14:18:37.741Z,37.40
2022-10-30T14:21:39.349Z,37.55
2022-10-30T14:24:14.869Z,37.44
2022-10-30T14:26:52.789Z,37.38
2022-10-30T14:29:52.117Z,37.42
2022-10-30T14:32:41.734Z,37.37
2022-10-30T14:35:43.470Z,37.37
2022-10-30T14:38:27.070Z,37.27
2022-10-30T14:41:20.689Z,37.40
2022-10-30T14:44:00.908Z,37.63
2022-10-30T14:46:38.053Z,37.78
2022-10-30T14:49:35.418Z,37.65
2022-10-30T14:52:21.873Z,37.80
2022-10-30T14:55:03.813Z,37.95
2022-10-30T14:57:52.756Z,38.18
2022-10-30T15:00:40.678Z,38.52
2022-10-30T15:03:38.890Z,38.80
2022-10-30T15:06:22.285Z,38.71
2022-10-30T15:09:05.954Z,38.67
2022-10-30T15:11:46.967Z,38.72
2022-10-30T15:14:48.452Z,38.94
2022-10-30T15:17:28.373Z,39.09
2022-10-30T15:19:57.203Z,39.18
2022-10-30T15:22:29.109Z,39.07
2022-10-30T15:24:58.164Z,39.48
2022-10-30T15:27:27.896Z,39.79
2022-10-30T15:29:59.782Z,39.88
2022-10-30T15:32:29.019Z,40.13
2022-10-30T15:35:00.971Z,40.27
2022-10-30T15:37:31.036Z,40.46
2022-10-30T15:40:12.838Z,40.55
2022-10-30T15:42:41.662Z,40.76
2022-10-30T15:45:18.390Z,40.64
2022-10-30T15:47:49.336Z,40.72
2022-10-30T15:50:20.104Z,40.56
2022-10-30T15:52:54.113Z,40.69
2022-10-30T15:55:29.061Z,40.53
2022-10-30T15:58:04.754Z,40.48
2022-10-30T16:00:36.304Z,40.34
2022-10-30T16:03:07.126Z,40.50
2022-10-30T16:05:37.031Z,40.53
2022-10-30T16:08:14.865Z,40.58
2022-10-30T16:10:45.803Z,40.65
2022-10-30T16:13:19.312Z,40.93
2022-10-30T16:15:49.970Z,40.94
2022-10-30T16:18:22.554Z,40.93
2022-10-30T16:20:53.670Z,40.80
2022-10-30T16:23:24.498Z,41.04
2022-10-30T16:25:57.196Z,40.84
2022-10-30T16:28:31.799Z,40.75
2022-10-30T16:31:02.951Z,40.78
2022-10-30T16:33:33.566Z,40.99
2022-10-30T16:36:03.626Z,40.72
2022-10-30T16:38:37.981Z,40.75
2022-10-30T16:41:07.517Z,40.75
2022-10-30T16:43:36.788Z,40.78
2022-10-30T16:46:36.301Z,40.77
2022-10-30T16:49:10.629Z,40.66
2022-10-30T16:51:40.620Z,40.83
2022-10-30T16:54:20.791Z,41.08
2022-10-30T16:56:49.901Z,41.21
2022-10-30T16:59:26.266Z,40.89
2022-10-30T17:01:58.230Z,40.72
2022-10-30T17:04:27.201Z,40.56
2022-10-30T17:07:07.287Z,40.54
2022-10-30T17:09:39.562Z,40.58
2022-10-30T17:12:17.139Z,40.50
2022-10-30T17:14:49.624Z,40.37
2022-10-30T17:17:30.181Z,40.18
2022-10-30T17:20:03.480Z,40.27
2022-10-30T17:22:32.555Z,40.29
2022-10-30T17:25:02.334Z,40.16
2022-10-30T17:27:47.358Z,40.28
2022-10-30T17:30:39.786Z,40.28
2022-10-30T17:33:38.329Z,40.14
2022-10-30T17:36:07.843Z,40.31
2022-10-30T17:38:36.475Z,40.31
2022-10-30T17:41:07.083Z,40.27
2022-10-30T17:43:48.626Z,40.11
2022-10-30T17:46:20.346Z,40.20
2022-10-30T17:48:49.639Z,40.18
2022-10-30T17:51:19.177Z,39.88
2022-10-30T17:53:49.348Z,39.98
2022-10-30T17:56:22.970Z,40.22
2022-10-30T17:58:50.977Z,40.40
2022-10-30T18:01:22.375Z,39.92
2022-10-30T18:03:51.328Z,39.79
2022-10-30T18:06:22.258Z,39.94
2022-10-30T18:08:51.235Z,40.05
2022-10-30T18:11:23.066Z,39.79
2022-10-30T18:13:53.250Z,39.62
2022-10-30T18:16:22.177Z,39.84
2022-10-30T18:18:50.962Z,40.07
2022-10-30T18:21:20.641Z,40.63
2022-10-30T18:23:53.403Z,40.43
2022-10-30T18:26:25.228Z,40.70
2022-10-30T18:28:53.874Z,41.14
2022-10-30T18:31:24.436Z,41.28
2022-10-30T18:33:53.267Z,41.47
2022-10-30T18:36:23.721Z,41.27
2022-10-30T18:38:53.169Z,41.80
2022-10-30T18:41:26.395Z,41.83
2022-10-30T18:43:54.738Z,42.08
2022-10-30T18:46:23.205Z,42.32
2022-10-30T18:48:51.900Z,42.39
2022-10-30T18:51:23.483Z,42.23
2022-10-30T18:53:57.277Z,42.36
2022-10-30T18:56:28.874Z,42.57
2022-10-30T18:59:01.936Z,42.59
2022-10-30T19:01:31.294Z,42.67
2022-10-30T19:04:02.485Z,43.33
2022-10-30T19:06:31.373Z,43.36
2022-10-30T19:08:59.754Z,43.28
2022-10-30T19:11:31.805Z,43.27
2022-10-30T19:14:00.647Z,43.43
2022-10-30T19:16:29.847Z,43.72
2022-10-30T19:18:58.254Z,43.77
2022-10-30T19:21:28.186Z,43.81
2022-10-30T19:23:57.060Z,43.58
2022-10-30T19:26:25.624Z,43.64
2022-10-30T19:28:55.737Z,43.32
2022-10-30T19:31:24.370Z,43.01
2022-10-30T19:33:57.405Z,43.40
2022-10-30T19:36:32.077Z,43.29
2022-10-30T19:39:05.755Z,43.12
2022-10-30T19:41:37.479Z,42.46
2022-10-30T19:44:07.757Z,42.05
2022-10-30T19:46:36.605Z,41.33
2022-10-30T19:49:18.423Z,41.53
2022-10-30T19:51:47.204Z,41.43
2022-10-30T19:54:16.501Z,41.71
2022-10-30T19:56:44.982Z,41.70
2022-10-30T19:59:17.487Z,41.01
2022-10-30T20:01:47.204Z,41.14
2022-10-30T20:04:17.359Z,40.36
2022-10-30T20:06:47.217Z,40.37
2022-10-30T20:09:16.743Z,40.04
2022-10-30T20:11:46.354Z,39.87
2022-10-30T20:14:17.831Z,39.05
2022-10-30T20:16:47.582Z,39.27
2022-10-30T20:19:30.345Z,39.02
2022-10-30T20:22:00.403Z,39.13
2022-10-30T20:24:30.064Z,39.22
2022-10-30T20:27:00.568Z,38.68
2022-10-30T20:29:32.196Z,38.48
2022-10-30T20:32:01.905Z,38.56
2022-10-30T20:34:32.016Z,38.66
2022-10-30T20:37:02.018Z,38.33
2022-10-30T20:39:31.708Z,38.43
2022-10-30T20:42:01.431Z,38.52
2022-10-30T20:44:32.652Z,38.65
2022-10-30T20:47:02.601Z,38.52
2022-10-30T20:49:32.292Z,38.58
2022-10-30T20:52:02.093Z,39.22
2022-10-30T20:54:32.120Z,39.49
2022-10-30T20:57:02.895Z,39.70
2022-10-30T20:59:33.186Z,39.63
2022-10-30T21:02:03.724Z,39.84
2022-10-30T21:04:33.083Z,40.35
2022-10-30T21:07:02.984Z,40.37
2022-10-30T21:09:32.587Z,40.47
2022-10-30T21:12:02.574Z,40.96
2022-10-30T21:14:34.183Z,40.94
2022-10-30T21:17:04.190Z,41.48
2022-10-30T21:19:33.958Z,41.27
2022-10-30T21:22:03.596Z,41.60
2022-10-30T21:24:33.563Z,41.69
2022-10-30T21:27:03.408Z,41.63
2022-10-30T21:29:35.486Z,41.58
2022-10-30T21:32:05.707Z,41.97
2022-10-30T21:34:35.529Z,41.51
2022-10-30T21:37:05.084Z,42.15
2022-10-30T21:39:33.702Z,42.35
2022-10-30T21:42:02.369Z,42.57
2022-10-30T21:44:31.033Z,42.14
2022-10-30T21:47:00.843Z,42.11
2022-10-30T21:49:29.157Z,42.37
2022-10-30T21:51:57.580Z,42.76
2022-10-30T21:54:26.150Z,43.04
2022-10-30T21:56:54.522Z,42.79
2022-10-30T21:59:24.363Z,42.59
2022-10-30T22:01:52.852Z,42.34
2022-10-30T22:04:22.691Z,42.54
2022-10-30T22:06:51.238Z,42.49
2022-10-30T22:09:20.384Z,42.52
2022-10-30T22:11:48.701Z,42.65
2022-10-30T22:14:17.082Z,42.33
2022-10-30T22:16:45.470Z,41.82
2022-10-30T22:19:13.804Z,41.58
2022-10-30T22:21:43.946Z,41.79
2022-10-30T22:24:13.863Z,41.34
2022-10-30T22:26:42.314Z,41.77
2022-10-30T22:29:10.843Z,41.49
2022-10-30T22:31:39.234Z,41.08
2022-10-30T22:34:07.566Z,41.07
2022-10-30T22:36:36.100Z,41.39
2022-10-30T22:39:09.988Z,39.87
2022-10-30T22:41:38.586Z,40.28
2022-10-30T22:44:09.049Z,40.68
2022-10-30T22:46:38.097Z,41.00
2022-10-30T22:49:07.637Z,40.51
2022-10-30T22:51:38.118Z,40.89
2022-10-30T22:54:09.617Z,40.85
2022-10-30T22:56:38.661Z,40.82
2022-10-30T22:59:08.992Z,41.07
2022-10-30T23:01:38.324Z,41.08
2022-10-30T23:04:07.898Z,40.72
2022-10-30T23:06:36.921Z,40.77
2022-10-30T23:09:09.313Z,40.91
2022-10-30T23:11:37.982Z,41.05
2022-10-30T23:14:06.399Z,41.52
2022-10-30T23:16:34.778Z,41.49
2022-10-30T23:19:03.388Z,41.97
2022-10-30T23:21:33.234Z,42.05
2022-10-30T23:24:03.853Z,42.18
2022-10-30T23:26:35.556Z,42.35
2022-10-30T23:29:04.521Z,42.71
2022-10-30T23:31:35.254Z,42.74
2022-10-30T23:34:07.345Z,43.24
2022-10-30T23:36:35.921Z,43.08
2022-10-30T23:39:07.077Z,43.44
2022-10-30T23:41:37.059Z,43.53
2022-10-30T23:44:07.298Z,43.74
2022-10-30T23:46:36.506Z,43.96
2022-10-30T23:49:05.469Z,44.12
2022-10-30T23:51:34.085Z,44.40
2022-10-30T23:54:02.784Z,44.48
2022-10-30T23:56:31.361Z,44.62
2022-10-30T23:59:02.059Z,44.40
